sensor_id;sensor_type;location;lat;lon;timestamp;P1;durP1;ratioP1;P2;durP2;ratioP2
59907;SDS011;61804;54.926;73.496;2022-12-18T00:00:27;20.30;;;12.57;;
59907;SDS011;61804;54.926;73.496;2022-12-18T00:02:55;20.73;;;14.50;;
59907;SDS011;61804;54.926;73.496;2022-12-18T00:05:23;19.38;;;10.55;;
59907;SDS011;61804;54.926;73.496;2022-12-18T00:08:01;21.73;;;11.50;;
59907;SDS011;61804;54.926;73.496;2022-12-18T00:10:29;23.08;;;10.57;;
59907;SDS011;61804;54.926;73.496;2022-12-18T00:13:02;23.45;;;15.93;;
59907;SDS011;61804;54.926;73.496;2022-12-18T00:15:32;15.75;;;11.05;;
59907;SDS011;61804;54.926;73.496;2022-12-18T00:18:01;19.45;;;13.70;;
59907;SDS011;61804;54.926;73.496;2022-12-18T00:20:38;22.67;;;11.48;;
59907;SDS011;61804;54.926;73.496;2022-12-18T00:23:06;27.52;;;13.75;;
59907;SDS011;61804;54.926;73.496;2022-12-18T00:25:34;30.67;;;15.77;;
59907;SDS011;61804;54.926;73.496;2022-12-18T00:28:04;44.83;;;23.35;;
59907;SDS011;61804;54.926;73.496;2022-12-18T00:30:32;41.42;;;26.60;;
59907;SDS011;61804;54.926;73.496;2022-12-18T00:33:11;43.80;;;22.10;;
59907;SDS011;61804;54.926;73.496;2022-12-18T00:35:38;40.75;;;21.75;;
59907;SDS011;61804;54.926;73.496;2022-12-18T00:38:07;27.00;;;17.02;;
59907;SDS011;61804;54.926;73.496;2022-12-18T00:40:47;27.15;;;15.85;;
59907;SDS011;61804;54.926;73.496;2022-12-18T00:43:15;29.00;;;18.80;;
59907;SDS011;61804;54.926;73.496;2022-12-18T00:45:53;27.45;;;15.50;;
59907;SDS011;61804;54.926;73.496;2022-12-18T00:48:23;25.70;;;18.35;;
59907;SDS011;61804;54.926;73.496;2022-12-18T00:51:02;29.88;;;15.43;;
59907;SDS011;61804;54.926;73.496;2022-12-18T00:53:29;28.38;;;20.65;;
59907;SDS011;61804;54.926;73.496;2022-12-18T00:55:58;35.22;;;20.13;;
59907;SDS011;61804;54.926;73.496;2022-12-18T00:58:25;23.90;;;16.95;;
59907;SDS011;61804;54.926;73.496;2022-12-18T01:00:58;33.92;;;20.65;;
59907;SDS011;61804;54.926;73.496;2022-12-18T01:03:26;25.52;;;18.30;;
59907;SDS011;61804;54.926;73.496;2022-12-18T01:06:07;38.72;;;21.42;;
59907;SDS011;61804;54.926;73.496;2022-12-18T01:08:35;40.53;;;18.50;;
59907;SDS011;61804;54.926;73.496;2022-12-18T01:11:11;41.97;;;17.85;;
59907;SDS011;61804;54.926;73.496;2022-12-18T01:13:39;36.30;;;19.65;;
59907;SDS011;61804;54.926;73.496;2022-12-18T01:16:08;35.38;;;22.08;;
59907;SDS011;61804;54.926;73.496;2022-12-18T01:18:38;54.05;;;33.00;;
59907;SDS011;61804;54.926;73.496;2022-12-18T01:21:10;58.42;;;27.95;;
59907;SDS011;61804;54.926;73.496;2022-12-18T01:23:38;40.80;;;27.17;;
59907;SDS011;61804;54.926;73.496;2022-12-18T01:26:10;51.40;;;31.50;;
59907;SDS011;61804;54.926;73.496;2022-12-18T01:28:39;74.22;;;40.38;;
59907;SDS011;61804;54.926;73.496;2022-12-18T01:33:44;61.83;;;32.03;;
59907;SDS011;61804;54.926;73.496;2022-12-18T01:36:16;65.72;;;35.05;;
59907;SDS011;61804;54.926;73.496;2022-12-18T01:38:45;61.90;;;30.40;;
59907;SDS011;61804;54.926;73.496;2022-12-18T01:41:13;56.28;;;29.13;;
59907;SDS011;61804;54.926;73.496;2022-12-18T01:43:55;49.58;;;29.20;;
59907;SDS011;61804;54.926;73.496;2022-12-18T01:46:26;54.42;;;30.48;;
59907;SDS011;61804;54.926;73.496;2022-12-18T01:49:01;44.70;;;26.45;;
59907;SDS011;61804;54.926;73.496;2022-12-18T01:51:29;39.47;;;21.35;;
59907;SDS011;61804;54.926;73.496;2022-12-18T01:53:57;43.22;;;19.60;;
59907;SDS011;61804;54.926;73.496;2022-12-18T01:56:37;30.50;;;20.75;;
59907;SDS011;61804;54.926;73.496;2022-12-18T01:59:05;38.45;;;22.15;;
59907;SDS011;61804;54.926;73.496;2022-12-18T02:01:35;32.33;;;18.92;;
59907;SDS011;61804;54.926;73.496;2022-12-18T02:04:22;40.17;;;22.67;;
59907;SDS011;61804;54.926;73.496;2022-12-18T02:09:41;36.58;;;20.40;;
59907;SDS011;61804;54.926;73.496;2022-12-18T02:12:22;44.08;;;24.40;;
59907;SDS011;61804;54.926;73.496;2022-12-18T02:18:09;41.55;;;21.17;;
59907;SDS011;61804;54.926;73.496;2022-12-18T02:20:49;35.78;;;23.83;;
59907;SDS011;61804;54.926;73.496;2022-12-18T02:26:04;40.22;;;25.67;;
59907;SDS011;61804;54.926;73.496;2022-12-18T02:28:41;47.90;;;23.38;;
59907;SDS011;61804;54.926;73.496;2022-12-18T02:31:13;35.28;;;23.95;;
59907;SDS011;61804;54.926;73.496;2022-12-18T02:33:42;53.33;;;25.23;;
59907;SDS011;61804;54.926;73.496;2022-12-18T02:36:13;40.28;;;21.77;;
59907;SDS011;61804;54.926;73.496;2022-12-18T02:38:44;44.08;;;24.90;;
59907;SDS011;61804;54.926;73.496;2022-12-18T02:41:24;42.22;;;24.67;;
59907;SDS011;61804;54.926;73.496;2022-12-18T02:43:55;48.20;;;25.27;;
59907;SDS011;61804;54.926;73.496;2022-12-18T02:46:36;48.42;;;30.95;;
59907;SDS011;61804;54.926;73.496;2022-12-18T02:52:10;69.72;;;35.47;;
59907;SDS011;61804;54.926;73.496;2022-12-18T02:54:55;73.68;;;38.35;;
59907;SDS011;61804;54.926;73.496;2022-12-18T02:57:34;54.28;;;31.23;;
59907;SDS011;61804;54.926;73.496;2022-12-18T03:00:11;41.90;;;23.33;;
59907;SDS011;61804;54.926;73.496;2022-12-18T03:02:46;39.30;;;22.58;;
59907;SDS011;61804;54.926;73.496;2022-12-18T03:05:19;36.05;;;20.90;;
59907;SDS011;61804;54.926;73.496;2022-12-18T03:08:06;33.88;;;20.73;;
59907;SDS011;61804;54.926;73.496;2022-12-18T03:10:39;33.38;;;23.13;;
59907;SDS011;61804;54.926;73.496;2022-12-18T03:13:20;40.72;;;22.85;;
59907;SDS011;61804;54.926;73.496;2022-12-18T03:15:51;40.72;;;21.30;;
59907;SDS011;61804;54.926;73.496;2022-12-18T03:18:25;34.40;;;20.13;;
59907;SDS011;61804;54.926;73.496;2022-12-18T03:20:55;35.78;;;22.23;;
59907;SDS011;61804;54.926;73.496;2022-12-18T03:23:27;32.22;;;21.40;;
59907;SDS011;61804;54.926;73.496;2022-12-18T03:25:57;38.65;;;21.85;;
59907;SDS011;61804;54.926;73.496;2022-12-18T03:28:28;51.42;;;31.13;;
59907;SDS011;61804;54.926;73.496;2022-12-18T03:31:11;60.72;;;34.38;;
59907;SDS011;61804;54.926;73.496;2022-12-18T03:36:10;75.55;;;40.88;;
59907;SDS011;61804;54.926;73.496;2022-12-18T03:38:43;124.13;;;58.13;;
59907;SDS011;61804;54.926;73.496;2022-12-18T03:41:27;104.55;;;53.72;;
59907;SDS011;61804;54.926;73.496;2022-12-18T03:44:28;57.63;;;41.08;;
59907;SDS011;61804;54.926;73.496;2022-12-18T03:49:56;75.55;;;44.15;;
59907;SDS011;61804;54.926;73.496;2022-12-18T03:55:00;59.15;;;42.47;;
59907;SDS011;61804;54.926;73.496;2022-12-18T03:57:32;53.88;;;34.78;;
59907;SDS011;61804;54.926;73.496;2022-12-18T04:00:04;59.97;;;33.97;;
59907;SDS011;61804;54.926;73.496;2022-12-18T04:02:52;59.83;;;36.15;;
59907;SDS011;61804;54.926;73.496;2022-12-18T04:05:40;57.42;;;34.95;;
59907;SDS011;61804;54.926;73.496;2022-12-18T04:08:15;50.50;;;29.88;;
59907;SDS011;61804;54.926;73.496;2022-12-18T04:10:52;50.88;;;32.28;;
59907;SDS011;61804;54.926;73.496;2022-12-18T04:13:27;54.85;;;32.05;;
59907;SDS011;61804;54.926;73.496;2022-12-18T04:16:06;55.42;;;40.05;;
59907;SDS011;61804;54.926;73.496;2022-12-18T04:18:35;59.65;;;32.40;;
59907;SDS011;61804;54.926;73.496;2022-12-18T04:21:04;71.22;;;32.33;;
59907;SDS011;61804;54.926;73.496;2022-12-18T04:23:33;42.10;;;28.60;;
59907;SDS011;61804;54.926;73.496;2022-12-18T04:26:06;49.55;;;31.40;;
59907;SDS011;61804;54.926;73.496;2022-12-18T04:28:44;47.85;;;25.88;;
59907;SDS011;61804;54.926;73.496;2022-12-18T04:31:13;51.65;;;30.33;;
59907;SDS011;61804;54.926;73.496;2022-12-18T04:33:41;52.65;;;32.78;;
59907;SDS011;61804;54.926;73.496;2022-12-18T04:36:10;48.78;;;28.05;;
59907;SDS011;61804;54.926;73.496;2022-12-18T04:38:40;32.67;;;24.35;;
59907;SDS011;61804;54.926;73.496;2022-12-18T04:41:12;42.90;;;22.75;;
59907;SDS011;61804;54.926;73.496;2022-12-18T04:43:41;31.40;;;20.88;;
59907;SDS011;61804;54.926;73.496;2022-12-18T04:46:20;41.25;;;28.13;;
59907;SDS011;61804;54.926;73.496;2022-12-18T04:48:48;39.60;;;20.50;;
59907;SDS011;61804;54.926;73.496;2022-12-18T04:51:16;36.90;;;20.73;;
59907;SDS011;61804;54.926;73.496;2022-12-18T04:53:44;32.72;;;21.52;;
59907;SDS011;61804;54.926;73.496;2022-12-18T04:56:13;23.40;;;18.80;;
59907;SDS011;61804;54.926;73.496;2022-12-18T04:58:42;32.80;;;20.00;;
59907;SDS011;61804;54.926;73.496;2022-12-18T05:01:11;44.20;;;21.17;;
59907;SDS011;61804;54.926;73.496;2022-12-18T05:03:39;35.13;;;26.92;;
59907;SDS011;61804;54.926;73.496;2022-12-18T05:06:08;43.03;;;29.65;;
59907;SDS011;61804;54.926;73.496;2022-12-18T05:08:40;36.60;;;24.20;;
59907;SDS011;61804;54.926;73.496;2022-12-18T05:11:10;38.83;;;24.77;;
59907;SDS011;61804;54.926;73.496;2022-12-18T05:13:38;38.58;;;23.40;;
59907;SDS011;61804;54.926;73.496;2022-12-18T05:16:06;59.65;;;35.40;;
59907;SDS011;61804;54.926;73.496;2022-12-18T05:18:34;44.10;;;29.33;;
59907;SDS011;61804;54.926;73.496;2022-12-18T05:21:03;59.60;;;35.15;;
59907;SDS011;61804;54.926;73.496;2022-12-18T05:23:30;64.18;;;40.08;;
59907;SDS011;61804;54.926;73.496;2022-12-18T05:26:03;49.78;;;32.08;;
59907;SDS011;61804;54.926;73.496;2022-12-18T05:28:31;37.80;;;25.83;;
59907;SDS011;61804;54.926;73.496;2022-12-18T05:31:07;35.10;;;23.35;;
59907;SDS011;61804;54.926;73.496;2022-12-18T05:33:35;30.50;;;23.08;;
59907;SDS011;61804;54.926;73.496;2022-12-18T05:36:07;31.23;;;22.95;;
59907;SDS011;61804;54.926;73.496;2022-12-18T05:38:35;32.92;;;24.42;;
59907;SDS011;61804;54.926;73.496;2022-12-18T05:41:03;36.60;;;24.27;;
59907;SDS011;61804;54.926;73.496;2022-12-18T05:43:31;39.08;;;22.20;;
59907;SDS011;61804;54.926;73.496;2022-12-18T05:46:03;29.77;;;18.83;;
59907;SDS011;61804;54.926;73.496;2022-12-18T05:48:31;37.70;;;23.73;;
59907;SDS011;61804;54.926;73.496;2022-12-18T05:51:03;26.15;;;19.50;;
59907;SDS011;61804;54.926;73.496;2022-12-18T05:53:32;29.70;;;19.15;;
59907;SDS011;61804;54.926;73.496;2022-12-18T05:56:04;34.78;;;23.48;;
59907;SDS011;61804;54.926;73.496;2022-12-18T05:58:33;48.42;;;23.77;;
59907;SDS011;61804;54.926;73.496;2022-12-18T06:03:40;41.60;;;28.25;;
59907;SDS011;61804;54.926;73.496;2022-12-18T06:06:16;43.10;;;28.35;;
59907;SDS011;61804;54.926;73.496;2022-12-18T06:08:45;35.05;;;26.88;;
59907;SDS011;61804;54.926;73.496;2022-12-18T06:11:16;37.53;;;32.58;;
59907;SDS011;61804;54.926;73.496;2022-12-18T06:13:44;46.03;;;32.10;;
59907;SDS011;61804;54.926;73.496;2022-12-18T06:16:13;38.97;;;27.65;;
59907;SDS011;61804;54.926;73.496;2022-12-18T06:18:40;42.40;;;27.75;;
59907;SDS011;61804;54.926;73.496;2022-12-18T06:21:08;39.47;;;29.75;;
59907;SDS011;61804;54.926;73.496;2022-12-18T06:23:36;42.92;;;32.03;;
59907;SDS011;61804;54.926;73.496;2022-12-18T06:26:05;33.00;;;26.65;;
59907;SDS011;61804;54.926;73.496;2022-12-18T06:28:32;31.85;;;23.92;;
59907;SDS011;61804;54.926;73.496;2022-12-18T06:31:02;40.55;;;23.92;;
59907;SDS011;61804;54.926;73.496;2022-12-18T06:33:30;49.78;;;28.77;;
59907;SDS011;61804;54.926;73.496;2022-12-18T06:36:00;35.45;;;24.98;;
59907;SDS011;61804;54.926;73.496;2022-12-18T06:38:28;33.25;;;22.38;;
59907;SDS011;61804;54.926;73.496;2022-12-18T06:40:56;35.70;;;25.00;;
59907;SDS011;61804;54.926;73.496;2022-12-18T06:43:24;41.38;;;30.08;;
59907;SDS011;61804;54.926;73.496;2022-12-18T06:46:03;44.22;;;26.95;;
59907;SDS011;61804;54.926;73.496;2022-12-18T06:48:32;35.15;;;24.80;;
59907;SDS011;61804;54.926;73.496;2022-12-18T06:50:59;43.72;;;25.38;;
59907;SDS011;61804;54.926;73.496;2022-12-18T06:53:27;36.97;;;21.90;;
59907;SDS011;61804;54.926;73.496;2022-12-18T06:56:06;40.38;;;25.15;;
59907;SDS011;61804;54.926;73.496;2022-12-18T06:58:39;37.85;;;24.45;;
59907;SDS011;61804;54.926;73.496;2022-12-18T07:01:15;39.88;;;29.00;;
59907;SDS011;61804;54.926;73.496;2022-12-18T07:03:54;35.65;;;23.73;;
59907;SDS011;61804;54.926;73.496;2022-12-18T07:06:26;35.10;;;22.40;;
59907;SDS011;61804;54.926;73.496;2022-12-18T07:08:54;45.60;;;26.50;;
59907;SDS011;61804;54.926;73.496;2022-12-18T07:11:32;42.92;;;26.00;;
59907;SDS011;61804;54.926;73.496;2022-12-18T07:14:00;40.63;;;23.55;;
59907;SDS011;61804;54.926;73.496;2022-12-18T07:16:27;48.35;;;25.83;;
59907;SDS011;61804;54.926;73.496;2022-12-18T07:18:55;35.78;;;25.55;;
59907;SDS011;61804;54.926;73.496;2022-12-18T07:21:23;41.42;;;29.45;;
59907;SDS011;61804;54.926;73.496;2022-12-18T07:23:52;47.05;;;33.22;;
59907;SDS011;61804;54.926;73.496;2022-12-18T07:26:29;57.53;;;35.05;;
59907;SDS011;61804;54.926;73.496;2022-12-18T07:28:57;55.33;;;31.20;;
59907;SDS011;61804;54.926;73.496;2022-12-18T07:31:25;49.45;;;31.30;;
59907;SDS011;61804;54.926;73.496;2022-12-18T07:33:53;58.65;;;36.75;;
59907;SDS011;61804;54.926;73.496;2022-12-18T07:36:27;62.70;;;41.55;;
59907;SDS011;61804;54.926;73.496;2022-12-18T07:38:55;54.38;;;35.35;;
59907;SDS011;61804;54.926;73.496;2022-12-18T07:41:32;52.10;;;36.95;;
59907;SDS011;61804;54.926;73.496;2022-12-18T07:44:11;50.55;;;32.85;;
59907;SDS011;61804;54.926;73.496;2022-12-18T07:46:39;58.00;;;42.40;;
59907;SDS011;61804;54.926;73.496;2022-12-18T07:49:12;60.38;;;44.72;;
59907;SDS011;61804;54.926;73.496;2022-12-18T07:51:40;45.80;;;33.60;;
59907;SDS011;61804;54.926;73.496;2022-12-18T07:54:08;44.38;;;29.90;;
59907;SDS011;61804;54.926;73.496;2022-12-18T07:56:36;42.90;;;28.05;;
59907;SDS011;61804;54.926;73.496;2022-12-18T07:59:03;29.17;;;20.67;;
59907;SDS011;61804;54.926;73.496;2022-12-18T08:01:33;38.63;;;29.58;;
59907;SDS011;61804;54.926;73.496;2022-12-18T08:04:00;35.97;;;24.05;;
59907;SDS011;61804;54.926;73.496;2022-12-18T08:06:29;35.05;;;26.15;;
59907;SDS011;61804;54.926;73.496;2022-12-18T08:08:56;39.72;;;30.38;;
59907;SDS011;61804;54.926;73.496;2022-12-18T08:11:25;52.95;;;28.65;;
59907;SDS011;61804;54.926;73.496;2022-12-18T08:13:52;56.67;;;40.20;;
59907;SDS011;61804;54.926;73.496;2022-12-18T08:16:21;44.60;;;29.75;;
59907;SDS011;61804;54.926;73.496;2022-12-18T08:18:51;50.22;;;31.70;;
59907;SDS011;61804;54.926;73.496;2022-12-18T08:21:19;43.30;;;28.25;;
59907;SDS011;61804;54.926;73.496;2022-12-18T08:23:50;34.75;;;24.42;;
59907;SDS011;61804;54.926;73.496;2022-12-18T08:26:18;61.00;;;38.60;;
59907;SDS011;61804;54.926;73.496;2022-12-18T08:28:53;43.95;;;24.13;;
59907;SDS011;61804;54.926;73.496;2022-12-18T08:31:21;58.38;;;35.17;;
59907;SDS011;61804;54.926;73.496;2022-12-18T08:33:51;44.50;;;30.02;;
59907;SDS011;61804;54.926;73.496;2022-12-18T08:36:20;31.25;;;22.48;;
59907;SDS011;61804;54.926;73.496;2022-12-18T08:38:48;36.65;;;26.48;;
59907;SDS011;61804;54.926;73.496;2022-12-18T08:41:19;41.78;;;22.80;;
59907;SDS011;61804;54.926;73.496;2022-12-18T08:43:47;42.67;;;26.50;;
59907;SDS011;61804;54.926;73.496;2022-12-18T08:49:01;48.55;;;30.52;;
59907;SDS011;61804;54.926;73.496;2022-12-18T08:51:28;49.08;;;35.55;;
59907;SDS011;61804;54.926;73.496;2022-12-18T08:53:56;35.55;;;22.90;;
59907;SDS011;61804;54.926;73.496;2022-12-18T08:56:25;43.88;;;28.77;;
59907;SDS011;61804;54.926;73.496;2022-12-18T08:58:53;34.33;;;24.98;;
59907;SDS011;61804;54.926;73.496;2022-12-18T09:01:21;89.10;;;48.20;;
59907;SDS011;61804;54.926;73.496;2022-12-18T09:03:49;31.27;;;19.80;;
59907;SDS011;61804;54.926;73.496;2022-12-18T09:06:18;34.20;;;23.65;;
59907;SDS011;61804;54.926;73.496;2022-12-18T09:08:46;39.25;;;25.17;;
59907;SDS011;61804;54.926;73.496;2022-12-18T09:11:20;47.25;;;26.15;;
59907;SDS011;61804;54.926;73.496;2022-12-18T09:13:54;33.03;;;22.25;;
59907;SDS011;61804;54.926;73.496;2022-12-18T09:16:22;19.38;;;15.75;;
59907;SDS011;61804;54.926;73.496;2022-12-18T09:18:49;22.75;;;15.40;;
59907;SDS011;61804;54.926;73.496;2022-12-18T09:21:20;25.38;;;17.63;;
59907;SDS011;61804;54.926;73.496;2022-12-18T09:23:49;31.63;;;20.25;;
59907;SDS011;61804;54.926;73.496;2022-12-18T09:26:21;26.15;;;19.40;;
59907;SDS011;61804;54.926;73.496;2022-12-18T09:28:49;36.20;;;27.85;;
59907;SDS011;61804;54.926;73.496;2022-12-18T09:31:17;108.07;;;72.03;;
59907;SDS011;61804;54.926;73.496;2022-12-18T09:33:45;115.50;;;81.25;;
59907;SDS011;61804;54.926;73.496;2022-12-18T09:36:13;86.03;;;61.83;;
59907;SDS011;61804;54.926;73.496;2022-12-18T09:38:42;85.70;;;65.07;;
59907;SDS011;61804;54.926;73.496;2022-12-18T09:43:53;44.15;;;29.40;;
59907;SDS011;61804;54.926;73.496;2022-12-18T09:46:36;37.67;;;30.10;;
59907;SDS011;61804;54.926;73.496;2022-12-18T09:49:05;51.08;;;36.42;;
59907;SDS011;61804;54.926;73.496;2022-12-18T09:51:36;94.88;;;72.68;;
59907;SDS011;61804;54.926;73.496;2022-12-18T09:54:14;103.28;;;79.43;;
59907;SDS011;61804;54.926;73.496;2022-12-18T09:56:43;93.53;;;57.58;;
59907;SDS011;61804;54.926;73.496;2022-12-18T09:59:34;74.07;;;51.22;;
59907;SDS011;61804;54.926;73.496;2022-12-18T10:02:00;46.65;;;35.17;;
59907;SDS011;61804;54.926;73.496;2022-12-18T10:04:27;82.53;;;55.70;;
59907;SDS011;61804;54.926;73.496;2022-12-18T10:07:14;64.60;;;43.42;;
59907;SDS011;61804;54.926;73.496;2022-12-18T10:09:49;119.32;;;75.63;;
59907;SDS011;61804;54.926;73.496;2022-12-18T10:12:22;98.93;;;64.65;;
59907;SDS011;61804;54.926;73.496;2022-12-18T10:14:55;72.78;;;51.88;;
59907;SDS011;61804;54.926;73.496;2022-12-18T10:23:04;54.30;;;34.20;;
59907;SDS011;61804;54.926;73.496;2022-12-18T10:28:23;72.15;;;46.72;;
59907;SDS011;61804;54.926;73.496;2022-12-18T10:31:04;59.05;;;36.38;;
59907;SDS011;61804;54.926;73.496;2022-12-18T10:33:33;44.40;;;30.42;;
59907;SDS011;61804;54.926;73.496;2022-12-18T10:36:11;51.50;;;30.60;;
59907;SDS011;61804;54.926;73.496;2022-12-18T10:38:41;53.17;;;31.40;;
59907;SDS011;61804;54.926;73.496;2022-12-18T10:43:45;36.03;;;23.27;;
59907;SDS011;61804;54.926;73.496;2022-12-18T10:46:17;33.40;;;22.25;;
59907;SDS011;61804;54.926;73.496;2022-12-18T10:48:52;26.80;;;19.08;;
59907;SDS011;61804;54.926;73.496;2022-12-18T10:53:57;36.97;;;20.40;;
59907;SDS011;61804;54.926;73.496;2022-12-18T10:56:36;40.75;;;26.55;;
59907;SDS011;61804;54.926;73.496;2022-12-18T10:59:05;42.08;;;26.15;;
59907;SDS011;61804;54.926;73.496;2022-12-18T11:04:17;51.13;;;26.65;;
59907;SDS011;61804;54.926;73.496;2022-12-18T11:07:19;47.03;;;29.15;;
59907;SDS011;61804;54.926;73.496;2022-12-18T11:09:45;46.83;;;28.88;;
59907;SDS011;61804;54.926;73.496;2022-12-18T11:12:33;43.05;;;22.27;;
59907;SDS011;61804;54.926;73.496;2022-12-18T11:15:01;24.42;;;20.83;;
59907;SDS011;61804;54.926;73.496;2022-12-18T11:17:33;39.03;;;20.67;;
59907;SDS011;61804;54.926;73.496;2022-12-18T11:20:14;38.92;;;22.88;;
59907;SDS011;61804;54.926;73.496;2022-12-18T11:22:56;32.67;;;20.73;;
59907;SDS011;61804;54.926;73.496;2022-12-18T11:25:28;45.28;;;28.45;;
59907;SDS011;61804;54.926;73.496;2022-12-18T11:28:01;25.13;;;18.77;;
59907;SDS011;61804;54.926;73.496;2022-12-18T11:30:30;28.63;;;20.23;;
59907;SDS011;61804;54.926;73.496;2022-12-18T11:38:06;74.55;;;43.30;;
59907;SDS011;61804;54.926;73.496;2022-12-18T11:40:39;85.85;;;47.80;;
59907;SDS011;61804;54.926;73.496;2022-12-18T11:43:10;127.93;;;80.05;;
59907;SDS011;61804;54.926;73.496;2022-12-18T11:46:00;60.72;;;33.17;;
59907;SDS011;61804;54.926;73.496;2022-12-18T11:48:33;85.82;;;51.38;;
59907;SDS011;61804;54.926;73.496;2022-12-18T11:51:04;62.80;;;35.22;;
59907;SDS011;61804;54.926;73.496;2022-12-18T11:53:32;177.38;;;108.10;;
59907;SDS011;61804;54.926;73.496;2022-12-18T12:07:21;40.03;;;23.38;;
59907;SDS011;61804;54.926;73.496;2022-12-18T12:17:42;40.58;;;25.52;;
59907;SDS011;61804;54.926;73.496;2022-12-18T12:20:15;43.55;;;28.48;;
59907;SDS011;61804;54.926;73.496;2022-12-18T12:30:49;22.27;;;14.30;;
59907;SDS011;61804;54.926;73.496;2022-12-18T12:33:22;28.98;;;16.42;;
59907;SDS011;61804;54.926;73.496;2022-12-18T12:38:42;21.77;;;15.80;;
59907;SDS011;61804;54.926;73.496;2022-12-18T12:41:11;66.05;;;29.02;;
59907;SDS011;61804;54.926;73.496;2022-12-18T12:44:13;51.83;;;29.83;;
59907;SDS011;61804;54.926;73.496;2022-12-18T12:46:42;41.28;;;23.83;;
59907;SDS011;61804;54.926;73.496;2022-12-18T12:49:14;35.42;;;18.90;;
59907;SDS011;61804;54.926;73.496;2022-12-18T12:51:45;31.83;;;17.02;;
59907;SDS011;61804;54.926;73.496;2022-12-18T12:54:18;62.45;;;27.50;;
59907;SDS011;61804;54.926;73.496;2022-12-18T12:57:00;40.17;;;21.58;;
59907;SDS011;61804;54.926;73.496;2022-12-18T13:02:18;55.45;;;33.85;;
59907;SDS011;61804;54.926;73.496;2022-12-18T13:07:50;48.00;;;29.10;;
59907;SDS011;61804;54.926;73.496;2022-12-18T13:13:10;31.38;;;19.95;;
59907;SDS011;61804;54.926;73.496;2022-12-18T13:15:40;40.40;;;22.00;;
59907;SDS011;61804;54.926;73.496;2022-12-18T13:20:41;53.70;;;31.77;;
59907;SDS011;61804;54.926;73.496;2022-12-18T13:26:39;27.17;;;16.67;;
59907;SDS011;61804;54.926;73.496;2022-12-18T13:36:42;33.80;;;23.20;;
59907;SDS011;61804;54.926;73.496;2022-12-18T13:41:42;92.32;;;50.50;;
59907;SDS011;61804;54.926;73.496;2022-12-18T13:44:24;50.78;;;31.42;;
59907;SDS011;61804;54.926;73.496;2022-12-18T13:46:52;39.22;;;28.38;;
59907;SDS011;61804;54.926;73.496;2022-12-18T13:49:38;37.90;;;23.45;;
59907;SDS011;61804;54.926;73.496;2022-12-18T13:54:46;27.27;;;16.38;;
59907;SDS011;61804;54.926;73.496;2022-12-18T13:57:30;39.53;;;26.13;;
59907;SDS011;61804;54.926;73.496;2022-12-18T13:59:58;38.72;;;22.48;;
59907;SDS011;61804;54.926;73.496;2022-12-18T14:02:27;49.67;;;28.73;;
59907;SDS011;61804;54.926;73.496;2022-12-18T14:04:57;58.80;;;34.42;;
59907;SDS011;61804;54.926;73.496;2022-12-18T14:07:25;52.17;;;29.58;;
59907;SDS011;61804;54.926;73.496;2022-12-18T14:09:56;37.60;;;22.63;;
59907;SDS011;61804;54.926;73.496;2022-12-18T14:12:25;27.83;;;16.98;;
59907;SDS011;61804;54.926;73.496;2022-12-18T14:18:37;31.08;;;20.08;;
59907;SDS011;61804;54.926;73.496;2022-12-18T14:20:48;25.38;;;15.77;;
59907;SDS011;61804;54.926;73.496;2022-12-18T14:23:29;19.20;;;13.80;;
59907;SDS011;61804;54.926;73.496;2022-12-18T14:25:57;30.63;;;19.55;;
59907;SDS011;61804;54.926;73.496;2022-12-18T14:28:25;28.52;;;16.17;;
59907;SDS011;61804;54.926;73.496;2022-12-18T14:30:53;17.48;;;13.63;;
59907;SDS011;61804;54.926;73.496;2022-12-18T14:33:30;21.05;;;13.27;;
59907;SDS011;61804;54.926;73.496;2022-12-18T14:36:03;24.40;;;13.68;;
59907;SDS011;61804;54.926;73.496;2022-12-18T14:38:38;38.72;;;17.20;;
59907;SDS011;61804;54.926;73.496;2022-12-18T14:41:12;29.77;;;14.27;;
59907;SDS011;61804;54.926;73.496;2022-12-18T14:43:45;25.63;;;15.85;;
59907;SDS011;61804;54.926;73.496;2022-12-18T14:46:34;26.50;;;17.40;;
59907;SDS011;61804;54.926;73.496;2022-12-18T14:49:18;25.10;;;17.20;;
59907;SDS011;61804;54.926;73.496;2022-12-18T14:51:50;22.52;;;16.48;;
59907;SDS011;61804;54.926;73.496;2022-12-18T14:54:21;34.88;;;19.83;;
59907;SDS011;61804;54.926;73.496;2022-12-18T14:57:01;19.75;;;14.07;;
59907;SDS011;61804;54.926;73.496;2022-12-18T14:59:29;21.73;;;14.57;;
59907;SDS011;61804;54.926;73.496;2022-12-18T15:02:04;30.55;;;19.13;;
59907;SDS011;61804;54.926;73.496;2022-12-18T15:04:45;35.08;;;20.98;;
59907;SDS011;61804;54.926;73.496;2022-12-18T15:07:14;33.38;;;19.35;;
59907;SDS011;61804;54.926;73.496;2022-12-18T15:09:43;24.90;;;14.80;;
59907;SDS011;61804;54.926;73.496;2022-12-18T15:12:24;37.28;;;22.35;;
59907;SDS011;61804;54.926;73.496;2022-12-18T15:15:03;35.22;;;20.38;;
59907;SDS011;61804;54.926;73.496;2022-12-18T15:17:32;29.98;;;20.40;;
59907;SDS011;61804;54.926;73.496;2022-12-18T15:20:01;32.40;;;23.75;;
59907;SDS011;61804;54.926;73.496;2022-12-18T15:22:30;33.47;;;21.40;;
59907;SDS011;61804;54.926;73.496;2022-12-18T15:25:01;52.45;;;30.38;;
59907;SDS011;61804;54.926;73.496;2022-12-18T15:27:31;34.47;;;19.00;;
59907;SDS011;61804;54.926;73.496;2022-12-18T15:32:35;41.40;;;19.60;;
59907;SDS011;61804;54.926;73.496;2022-12-18T15:37:43;22.00;;;16.27;;
59907;SDS011;61804;54.926;73.496;2022-12-18T15:40:21;26.73;;;20.10;;
59907;SDS011;61804;54.926;73.496;2022-12-18T15:42:55;30.10;;;16.10;;
59907;SDS011;61804;54.926;73.496;2022-12-18T15:48:12;21.08;;;15.85;;
59907;SDS011;61804;54.926;73.496;2022-12-18T15:50:42;25.60;;;15.13;;
59907;SDS011;61804;54.926;73.496;2022-12-18T15:53:15;26.13;;;17.42;;
59907;SDS011;61804;54.926;73.496;2022-12-18T15:55:43;42.75;;;22.45;;
59907;SDS011;61804;54.926;73.496;2022-12-18T16:00:56;21.60;;;13.38;;
59907;SDS011;61804;54.926;73.496;2022-12-18T16:03:25;23.77;;;13.82;;
59907;SDS011;61804;54.926;73.496;2022-12-18T16:05:53;27.70;;;16.45;;
59907;SDS011;61804;54.926;73.496;2022-12-18T16:08:20;30.45;;;18.45;;
59907;SDS011;61804;54.926;73.496;2022-12-18T16:10:47;30.42;;;17.85;;
59907;SDS011;61804;54.926;73.496;2022-12-18T16:13:20;24.10;;;13.20;;
59907;SDS011;61804;54.926;73.496;2022-12-18T16:15:52;22.70;;;14.95;;
59907;SDS011;61804;54.926;73.496;2022-12-18T16:18:20;20.77;;;12.75;;
59907;SDS011;61804;54.926;73.496;2022-12-18T16:20:50;37.30;;;20.85;;
59907;SDS011;61804;54.926;73.496;2022-12-18T16:23:18;25.98;;;14.02;;
59907;SDS011;61804;54.926;73.496;2022-12-18T16:25:45;25.73;;;16.73;;
59907;SDS011;61804;54.926;73.496;2022-12-18T16:28:17;29.67;;;18.33;;
59907;SDS011;61804;54.926;73.496;2022-12-18T16:30:49;25.90;;;15.50;;
59907;SDS011;61804;54.926;73.496;2022-12-18T16:33:22;25.90;;;14.70;;
59907;SDS011;61804;54.926;73.496;2022-12-18T16:35:52;22.75;;;14.38;;
59907;SDS011;61804;54.926;73.496;2022-12-18T16:38:20;24.33;;;16.15;;